Japan Airlines Virtual Airport Information Service

Naha Airport

ICAO: ROAH Country: Japan
Latitude: 26.1958 Longitude: 127.646
Latest Arrival : ANA1209 (RJFF-ROAH) Latest Departure : ANA8411 (ROAH-WSSS)


WX CaptureLIVE
Data provided by noaa.gov | Fetched at 16:30:25

METAR : ROAH 041600Z 05010KT 9999 FEW035 BKN060 18/09 Q1023 RMK 1CU035 6AC060 A3021

TAF : ROAH 041105Z 0412/0518 04010KT 9999 FEW035 BKN045


Runway Data for ROAH
Data provided by openaviationdata.com

Runway ID Mag Var Hdg Length Elevation Surface ILS Freq ILS Id ILS Slope
18 -4 181° 9872 ft 11 ft Asphalt -- -- --
36 -4 9872 ft 11 ft Asphalt 110.3 IOK 2

Naha Airport, Japan
Use only for reference purposes



Not for navigational purposes.